Time;durP1;ratioP1;P1;durP2;ratioP2;P2;SDS_P1;SDS_P2;PMS_P1;PMS_P2;Temp;Humidity;BMP_temperature;BMP_pressure;BME280_temperature;BME280_humidity;BME280_pressure;Samples;Min_cycle;Max_cycle;Signal;HPM_P1;HPM_P2
2023/01/23 00:00:45;;;;;;;27.65;12.48;;;;;;;;;;5071787;28;20079;-67
2023/01/23 00:03:13;;;;;;;27.15;12.88;;;;;;;;;;5071772;28;20041;-66
2023/01/23 00:05:40;;;;;;;30.23;14.57;;;;;;;;;;5074393;28;20036;-66
2023/01/23 00:08:08;;;;;;;29.33;14.65;;;;;;;;;;5075502;28;20098;-66
2023/01/23 00:10:37;;;;;;;26.38;13.23;;;;;;;;;;5075577;28;20497;-66
2023/01/23 00:13:05;;;;;;;28.15;11.68;;;;;;;;;;5075280;28;20048;-66
2023/01/23 00:15:32;;;;;;;30.15;13.10;;;;;;;;;;5075379;28;20590;-66
2023/01/23 00:18:00;;;;;;;20.55;10.60;;;;;;;;;;5075235;28;20047;-66
2023/01/23 00:20:27;;;;;;;30.00;13.48;;;;;;;;;;5075261;28;20040;-66
2023/01/23 00:22:55;;;;;;;29.95;12.55;;;;;;;;;;5075225;28;20037;-67
2023/01/23 00:25:22;;;;;;;25.98;12.10;;;;;;;;;;5075180;28;20118;-66
2023/01/23 00:27:50;;;;;;;33.45;13.35;;;;;;;;;;5073816;28;20075;-66
2023/01/23 00:30:17;;;;;;;28.85;13.90;;;;;;;;;;5073723;28;20037;-66
2023/01/23 00:32:45;;;;;;;25.00;12.27;;;;;;;;;;5075033;28;20127;-66
2023/01/23 00:35:13;;;;;;;32.28;12.35;;;;;;;;;;5074940;28;20040;-66
2023/01/23 00:37:41;;;;;;;26.40;11.90;;;;;;;;;;5073679;28;20109;-66
2023/01/23 00:40:12;;;;;;;25.20;13.68;;;;;;;;;;5074896;28;20047;-66
2023/01/23 00:42:39;;;;;;;23.90;11.80;;;;;;;;;;5074737;28;20574;-66
2023/01/23 00:45:07;;;;;;;26.58;11.85;;;;;;;;;;5074767;28;20040;-66
2023/01/23 00:47:34;;;;;;;27.70;12.32;;;;;;;;;;5073542;28;20513;-67
2023/01/23 00:50:02;;;;;;;25.10;12.25;;;;;;;;;;5073507;28;20041;-66
2023/01/23 00:52:29;;;;;;;24.13;13.43;;;;;;;;;;5073084;28;20044;-66
2023/01/23 00:54:57;;;;;;;27.85;12.23;;;;;;;;;;5073425;28;20052;-64
2023/01/23 00:57:24;;;;;;;27.08;12.20;;;;;;;;;;5074780;28;20036;-65
2023/01/23 00:59:52;;;;;;;25.67;12.80;;;;;;;;;;5073346;28;20044;-65
2023/01/23 01:02:19;;;;;;;24.75;11.32;;;;;;;;;;5074384;28;20056;-66
2023/01/23 01:04:47;;;;;;;21.08;9.73;;;;;;;;;;5074497;28;20144;-64
2023/01/23 01:07:14;;;;;;;23.05;10.98;;;;;;;;;;5074780;28;20055;-65
2023/01/23 01:09:42;;;;;;;21.83;9.27;;;;;;;;;;5074423;28;20048;-67
2023/01/23 01:12:09;;;;;;;27.23;12.18;;;;;;;;;;5072980;28;20380;-64
2023/01/23 01:14:37;;;;;;;23.70;9.73;;;;;;;;;;5072918;28;20040;-64
2023/01/23 01:17:05;;;;;;;24.05;10.65;;;;;;;;;;5072349;28;20071;-64
2023/01/23 01:19:33;;;;;;;29.83;12.00;;;;;;;;;;5073317;28;20159;-64
2023/01/23 01:22:00;;;;;;;30.10;13.77;;;;;;;;;;5075904;28;20045;-65
2023/01/23 01:24:28;;;;;;;25.38;11.85;;;;;;;;;;5074989;28;20086;-66
2023/01/23 01:26:55;;;;;;;30.23;14.13;;;;;;;;;;5074197;28;20036;-65
2023/01/23 01:29:23;;;;;;;30.55;12.90;;;;;;;;;;5072704;28;20051;-65
2023/01/23 01:31:50;;;;;;;30.15;12.73;;;;;;;;;;5072868;28;20033;-65
2023/01/23 01:34:18;;;;;;;29.55;12.27;;;;;;;;;;5072458;28;20048;-66
2023/01/23 01:36:50;;;;;;;32.55;14.63;;;;;;;;;;5072659;28;20414;-66
2023/01/23 01:39:18;;;;;;;29.25;14.52;;;;;;;;;;5072609;28;20051;-66
2023/01/23 01:41:46;;;;;;;27.20;12.95;;;;;;;;;;5073592;28;20037;-66
2023/01/23 01:44:20;;;;;;;25.50;12.13;;;;;;;;;;5072360;28;20044;-66
2023/01/23 01:46:48;;;;;;;28.48;13.40;;;;;;;;;;5072356;28;20044;-66
2023/01/23 01:49:23;;;;;;;30.52;12.88;;;;;;;;;;5073432;28;20040;-66
2023/01/23 01:51:58;;;;;;;30.63;13.80;;;;;;;;;;5072141;28;20048;-66
2023/01/23 01:54:27;;;;;;;32.22;13.50;;;;;;;;;;5071945;28;20453;-65
2023/01/23 01:57:10;;;;;;;32.05;13.65;;;;;;;;;;5072083;28;20040;-65
2023/01/23 01:59:43;;;;;;;35.00;13.00;;;;;;;;;;5073321;28;20119;-64
2023/01/23 02:02:16;;;;;;;30.45;13.50;;;;;;;;;;5071892;28;20060;-65
2023/01/23 02:04:47;;;;;;;36.73;13.70;;;;;;;;;;5071879;28;20049;-65
2023/01/23 02:07:18;;;;;;;35.63;15.43;;;;;;;;;;5071795;28;20131;-66
2023/01/23 02:09:46;;;;;;;25.40;12.05;;;;;;;;;;5071861;28;20044;-65
2023/01/23 02:12:14;;;;;;;28.02;12.48;;;;;;;;;;5071637;28;20135;-65
2023/01/23 02:14:41;;;;;;;32.05;12.65;;;;;;;;;;5071598;28;20135;-65
2023/01/23 02:17:09;;;;;;;25.33;12.05;;;;;;;;;;5071646;28;20045;-65
2023/01/23 02:19:37;;;;;;;38.35;15.27;;;;;;;;;;5072807;28;20036;-65
2023/01/23 02:22:22;;;;;;;36.13;14.20;;;;;;;;;;5072963;28;20102;-65
2023/01/23 02:24:58;;;;;;;40.20;14.93;;;;;;;;;;5071643;28;20049;-66
2023/01/23 02:27:26;;;;;;;40.63;14.90;;;;;;;;;;5070985;28;20440;-65
2023/01/23 02:29:55;;;;;;;30.42;13.25;;;;;;;;;;5071098;28;20075;-65
2023/01/23 02:32:26;;;;;;;43.15;16.25;;;;;;;;;;5071403;28;20045;-65
2023/01/23 02:34:56;;;;;;;35.10;15.05;;;;;;;;;;5071285;28;20494;-65
2023/01/23 02:37:25;;;;;;;31.60;15.20;;;;;;;;;;5071485;28;20559;-64
2023/01/23 02:39:52;;;;;;;25.98;11.07;;;;;;;;;;5071416;28;20037;-64
2023/01/23 02:42:21;;;;;;;31.58;13.57;;;;;;;;;;5071348;28;20046;-65
2023/01/23 02:44:52;;;;;;;38.30;14.68;;;;;;;;;;5071370;28;20127;-65
2023/01/23 02:47:22;;;;;;;31.52;12.85;;;;;;;;;;5072719;28;20043;-64
2023/01/23 02:49:49;;;;;;;35.53;15.38;;;;;;;;;;5071276;28;20041;-65
2023/01/23 02:52:17;;;;;;;35.25;13.65;;;;;;;;;;5072605;28;20483;-65
2023/01/23 02:54:45;;;;;;;39.15;14.65;;;;;;;;;;5071172;28;20493;-65
2023/01/23 02:57:14;;;;;;;38.30;13.80;;;;;;;;;;5071328;28;20131;-64
2023/01/23 03:02:30;;;;;;;38.65;14.40;;;;;;;;;;5071273;28;20116;-65
2023/01/23 03:04:58;;;;;;;34.30;13.48;;;;;;;;;;5071111;28;20127;-67
2023/01/23 03:07:27;;;;;;;34.47;12.05;;;;;;;;;;5071040;28;20044;-64
2023/01/23 03:09:55;;;;;;;37.92;14.35;;;;;;;;;;5071263;28;20048;-65
2023/01/23 03:12:22;;;;;;;31.05;13.50;;;;;;;;;;5071100;28;20037;-65
2023/01/23 03:14:53;;;;;;;35.15;14.50;;;;;;;;;;5070938;28;20192;-65
2023/01/23 03:17:22;;;;;;;29.58;14.02;;;;;;;;;;5071099;28;20139;-65
2023/01/23 03:19:49;;;;;;;27.60;10.80;;;;;;;;;;5071054;28;20052;-65
2023/01/23 03:22:17;;;;;;;34.30;14.80;;;;;;;;;;5071044;28;20041;-66
2023/01/23 03:24:44;;;;;;;33.08;13.90;;;;;;;;;;5072246;28;20418;-65
2023/01/23 03:27:12;;;;;;;36.10;12.65;;;;;;;;;;5072268;28;20509;-66
2023/01/23 03:32:31;;;;;;;35.40;14.23;;;;;;;;;;5070985;28;20132;-66
2023/01/23 03:34:59;;;;;;;28.48;11.40;;;;;;;;;;5070831;28;20064;-66
2023/01/23 03:37:27;;;;;;;33.03;12.93;;;;;;;;;;5070894;28;20040;-66
2023/01/23 03:42:43;;;;;;;33.83;13.90;;;;;;;;;;5074528;28;20048;-66
2023/01/23 03:45:13;;;;;;;24.27;10.52;;;;;;;;;;5074593;28;20047;-66
2023/01/23 03:47:41;;;;;;;28.55;11.73;;;;;;;;;;5074631;28;20131;-66
2023/01/23 03:50:10;;;;;;;24.23;10.93;;;;;;;;;;5074559;28;20044;-66
2023/01/23 03:52:39;;;;;;;33.85;12.70;;;;;;;;;;5074331;28;20043;-66
2023/01/23 03:55:07;;;;;;;29.58;12.63;;;;;;;;;;5074154;28;20040;-66
2023/01/23 03:57:35;;;;;;;26.60;10.45;;;;;;;;;;5074181;28;20068;-66
2023/01/23 04:00:22;;;;;;;30.10;12.20;;;;;;;;;;5074424;28;20044;-66
2023/01/23 04:02:57;;;;;;;30.17;12.88;;;;;;;;;;5074319;28;20036;-67
2023/01/23 04:05:25;;;;;;;24.63;10.95;;;;;;;;;;5074191;28;20051;-65
2023/01/23 04:07:52;;;;;;;31.80;13.40;;;;;;;;;;5074138;28;20044;-64
2023/01/23 04:10:20;;;;;;;27.38;10.57;;;;;;;;;;5073996;28;20063;-64
2023/01/23 04:12:53;;;;;;;29.23;10.55;;;;;;;;;;5073866;28;20559;-64
2023/01/23 04:15:20;;;;;;;22.52;10.57;;;;;;;;;;5075336;28;20055;-64
2023/01/23 04:17:50;;;;;;;18.23;8.15;;;;;;;;;;5073933;28;20090;-64
2023/01/23 04:20:17;;;;;;;20.48;8.98;;;;;;;;;;5073935;28;20045;-64
2023/01/23 04:22:45;;;;;;;21.75;9.63;;;;;;;;;;5075167;28;20094;-64
2023/01/23 04:25:14;;;;;;;21.45;9.15;;;;;;;;;;5073723;28;20098;-65
2023/01/23 04:27:41;;;;;;;24.08;11.65;;;;;;;;;;5074945;28;20036;-65
2023/01/23 04:30:10;;;;;;;22.58;9.80;;;;;;;;;;5073828;28;20405;-65
2023/01/23 04:32:38;;;;;;;22.33;10.65;;;;;;;;;;5074993;28;20037;-65
2023/01/23 04:35:07;;;;;;;25.08;10.45;;;;;;;;;;5057194;28;20402;-64
2023/01/23 04:37:37;;;;;;;18.50;8.48;;;;;;;;;;5073696;28;20131;-65
2023/01/23 04:40:04;;;;;;;24.63;7.93;;;;;;;;;;5073536;28;20405;-65
2023/01/23 04:42:42;;;;;;;30.08;10.80;;;;;;;;;;5073340;28;20055;-64
2023/01/23 04:45:32;;;;;;;20.90;10.32;;;;;;;;;;5073496;28;20052;-65
2023/01/23 04:48:17;;;;;;;24.63;8.88;;;;;;;;;;5073178;28;20528;-64
2023/01/23 04:50:45;;;;;;;19.58;9.27;;;;;;;;;;5072493;28;20053;-65
2023/01/23 04:53:13;;;;;;;20.98;9.48;;;;;;;;;;5073160;28;20807;-64
2023/01/23 04:55:43;;;;;;;21.35;9.45;;;;;;;;;;5073231;28;20139;-64
2023/01/23 04:58:13;;;;;;;25.80;10.02;;;;;;;;;;5073387;28;20514;-64
2023/01/23 05:00:41;;;;;;;22.38;9.65;;;;;;;;;;5073178;28;20505;-65
2023/01/23 05:03:08;;;;;;;25.55;10.32;;;;;;;;;;5073118;28;20127;-65
2023/01/23 05:05:43;;;;;;;25.83;9.27;;;;;;;;;;5073011;28;20513;-65
2023/01/23 05:08:11;;;;;;;21.38;9.23;;;;;;;;;;5091147;28;20147;-65
2023/01/23 05:10:40;;;;;;;22.23;10.15;;;;;;;;;;5093220;28;20043;-65
2023/01/23 05:13:11;;;;;;;22.67;9.45;;;;;;;;;;5092962;28;20089;-68
2023/01/23 05:15:39;;;;;;;19.98;9.35;;;;;;;;;;5094637;28;20048;-67
2023/01/23 05:18:07;;;;;;;23.55;10.18;;;;;;;;;;5093196;28;20055;-67
2023/01/23 05:20:35;;;;;;;22.40;10.00;;;;;;;;;;5092704;28;20055;-68
2023/01/23 05:23:04;;;;;;;20.63;8.70;;;;;;;;;;5092412;28;20036;-68
2023/01/23 05:25:39;;;;;;;21.13;8.13;;;;;;;;;;5093433;28;20498;-67
2023/01/23 05:28:07;;;;;;;22.05;9.13;;;;;;;;;;5092644;28;20101;-68
2023/01/23 05:30:41;;;;;;;21.13;8.90;;;;;;;;;;5092925;28;20090;-67
2023/01/23 05:33:18;;;;;;;22.60;10.07;;;;;;;;;;5092776;28;20044;-67
2023/01/23 05:35:46;;;;;;;22.00;9.48;;;;;;;;;;5092711;28;20040;-68
2023/01/23 05:38:13;;;;;;;17.85;8.45;;;;;;;;;;5092824;28;20040;-67
2023/01/23 05:40:42;;;;;;;18.35;9.35;;;;;;;;;;5091155;28;20068;-67
2023/01/23 05:43:42;;;;;;;21.42;8.85;;;;;;;;;;5092566;28;20502;-67
2023/01/23 05:46:16;;;;;;;18.60;9.02;;;;;;;;;;5092950;28;20048;-67
2023/01/23 05:48:50;;;;;;;19.25;10.05;;;;;;;;;;5091566;28;20050;-67
2023/01/23 05:51:20;;;;;;;18.52;8.73;;;;;;;;;;5091839;28;20068;-67
2023/01/23 05:53:49;;;;;;;18.77;10.27;;;;;;;;;;5091684;28;20044;-67
2023/01/23 05:56:17;;;;;;;23.63;12.07;;;;;;;;;;5092301;28;20544;-67
2023/01/23 05:59:14;;;;;;;19.90;9.50;;;;;;;;;;5055856;28;20522;-67
2023/01/23 06:01:47;;;;;;;14.90;7.80;;;;;;;;;;5092238;28;20551;-67
2023/01/23 06:04:33;;;;;;;18.05;8.18;;;;;;;;;;5093817;28;20129;-67
2023/01/23 06:07:26;;;;;;;17.88;8.35;;;;;;;;;;5092012;28;20088;-67
2023/01/23 06:09:56;;;;;;;18.92;9.07;;;;;;;;;;5092218;28;20520;-67
2023/01/23 06:12:24;;;;;;;14.63;7.03;;;;;;;;;;5092155;28;20048;-67
2023/01/23 06:14:52;;;;;;;18.23;8.13;;;;;;;;;;5092025;28;20051;-67
2023/01/23 06:17:19;;;;;;;18.13;8.63;;;;;;;;;;5091997;28;20075;-67
2023/01/23 06:19:47;;;;;;;15.15;7.13;;;;;;;;;;5092022;28;20043;-67
2023/01/23 06:22:15;;;;;;;16.58;8.32;;;;;;;;;;5091966;28;20149;-67
2023/01/23 06:24:58;;;;;;;17.65;8.25;;;;;;;;;;5092033;28;20131;-67
2023/01/23 06:27:26;;;;;;;18.70;8.27;;;;;;;;;;5091947;28;20513;-66
2023/01/23 06:29:54;;;;;;;17.27;8.45;;;;;;;;;;5091906;28;20127;-66
2023/01/23 06:32:22;;;;;;;14.13;6.80;;;;;;;;;;5091796;28;20051;-66
2023/01/23 06:34:51;;;;;;;17.27;8.25;;;;;;;;;;5091626;28;20143;-66
2023/01/23 06:37:18;;;;;;;15.15;7.13;;;;;;;;;;5093247;28;20043;-67
2023/01/23 06:39:46;;;;;;;15.57;7.65;;;;;;;;;;5091681;28;20063;-66
2023/01/23 06:42:15;;;;;;;13.38;6.05;;;;;;;;;;5091590;28;20478;-66
2023/01/23 06:44:47;;;;;;;16.92;8.32;;;;;;;;;;5091584;28;20066;-67
2023/01/23 06:47:15;;;;;;;16.13;7.50;;;;;;;;;;5091548;28;20135;-67
2023/01/23 06:49:44;;;;;;;14.35;6.93;;;;;;;;;;5091537;28;20046;-67
2023/01/23 06:52:12;;;;;;;15.80;7.65;;;;;;;;;;5093053;28;20039;-67
2023/01/23 06:54:44;;;;;;;12.70;6.35;;;;;;;;;;5091268;28;20513;-67
2023/01/23 06:57:12;;;;;;;15.50;7.45;;;;;;;;;;5091433;28;20051;-67
2023/01/23 06:59:40;;;;;;;16.95;7.15;;;;;;;;;;5091318;28;20048;-67
2023/01/23 07:02:13;;;;;;;19.02;8.70;;;;;;;;;;5091337;28;20136;-67
2023/01/23 07:04:49;;;;;;;13.15;6.10;;;;;;;;;;5091314;28;20046;-68
2023/01/23 07:07:17;;;;;;;18.15;7.65;;;;;;;;;;5091147;28;20055;-67
2023/01/23 07:09:47;;;;;;;13.27;7.20;;;;;;;;;;5091282;28;20530;-67
2023/01/23 07:12:18;;;;;;;15.52;6.53;;;;;;;;;;5091318;28;20051;-67
2023/01/23 07:14:46;;;;;;;16.02;7.53;;;;;;;;;;5092468;28;20089;-68
2023/01/23 07:17:18;;;;;;;11.10;5.78;;;;;;;;;;5095477;28;20036;-67
2023/01/23 07:19:46;;;;;;;17.50;7.85;;;;;;;;;;5095464;28;20078;-67
2023/01/23 07:22:17;;;;;;;23.30;9.63;;;;;;;;;;5095312;28;20036;-67
2023/01/23 07:24:45;;;;;;;19.95;7.97;;;;;;;;;;5096823;28;20062;-67
2023/01/23 07:27:13;;;;;;;22.08;9.65;;;;;;;;;;5096543;28;20428;-68
2023/01/23 07:29:41;;;;;;;14.57;6.75;;;;;;;;;;5096577;28;20552;-67
2023/01/23 07:32:08;;;;;;;20.88;8.23;;;;;;;;;;5096513;28;20036;-67
2023/01/23 07:34:38;;;;;;;19.67;8.80;;;;;;;;;;5096364;28;20078;-67
2023/01/23 07:37:05;;;;;;;18.55;9.35;;;;;;;;;;5096507;28;20040;-67
2023/01/23 07:39:33;;;;;;;22.60;8.35;;;;;;;;;;5096325;28;20091;-67
2023/01/23 07:42:00;;;;;;;18.20;9.70;;;;;;;;;;5096140;28;20036;-67
2023/01/23 07:44:28;;;;;;;21.40;9.05;;;;;;;;;;5096326;28;20048;-67
2023/01/23 07:46:56;;;;;;;17.65;7.75;;;;;;;;;;5096168;28;20040;-67
2023/01/23 07:49:24;;;;;;;17.75;7.10;;;;;;;;;;5096048;28;20036;-68
2023/01/23 07:51:51;;;;;;;19.75;9.27;;;;;;;;;;5095992;28;20054;-67
2023/01/23 07:54:19;;;;;;;21.38;8.05;;;;;;;;;;5094566;28;20036;-68
2023/01/23 07:56:48;;;;;;;21.33;8.65;;;;;;;;;;5096621;28;20381;-68
2023/01/23 07:59:16;;;;;;;19.48;8.13;;;;;;;;;;5095918;28;20097;-67
2023/01/23 08:01:43;;;;;;;18.65;8.18;;;;;;;;;;5095981;28;20059;-69
2023/01/23 08:04:11;;;;;;;21.17;8.15;;;;;;;;;;5096001;28;20036;-68
2023/01/23 08:06:39;;;;;;;23.45;9.27;;;;;;;;;;5095917;28;20056;-68
2023/01/23 08:09:06;;;;;;;19.58;8.20;;;;;;;;;;5094813;28;20040;-68
2023/01/23 08:11:34;;;;;;;16.75;7.20;;;;;;;;;;5095717;28;20440;-68
2023/01/23 08:14:01;;;;;;;15.63;6.75;;;;;;;;;;5095692;28;20040;-68
2023/01/23 08:16:29;;;;;;;16.13;7.65;;;;;;;;;;5094545;28;20085;-67
2023/01/23 08:18:57;;;;;;;14.13;6.28;;;;;;;;;;5095968;28;20422;-66
2023/01/23 08:21:24;;;;;;;11.38;5.95;;;;;;;;;;5095656;28;20452;-68
2023/01/23 08:23:51;;;;;;;16.42;7.57;;;;;;;;;;5095504;28;20040;-68
2023/01/23 08:26:19;;;;;;;15.80;8.18;;;;;;;;;;5095573;28;20036;-66
2023/01/23 08:28:46;;;;;;;16.52;7.88;;;;;;;;;;5095362;28;20524;-66
2023/01/23 08:31:14;;;;;;;13.70;7.20;;;;;;;;;;5095434;28;20094;-67
2023/01/23 08:33:42;;;;;;;16.90;8.57;;;;;;;;;;5094271;28;20391;-66
2023/01/23 08:36:11;;;;;;;11.68;5.88;;;;;;;;;;5095102;28;20044;-66
2023/01/23 08:38:39;;;;;;;13.32;5.75;;;;;;;;;;5095171;28;20075;-67
2023/01/23 08:41:08;;;;;;;15.73;6.97;;;;;;;;;;5095510;28;20058;-67
2023/01/23 08:43:36;;;;;;;12.23;6.05;;;;;;;;;;5094961;28;20052;-67
2023/01/23 08:46:03;;;;;;;13.68;6.75;;;;;;;;;;5095055;28;20444;-67
2023/01/23 08:48:33;;;;;;;11.45;5.43;;;;;;;;;;5094913;28;20097;-66
2023/01/23 08:51:13;;;;;;;13.38;6.47;;;;;;;;;;5094942;28;20036;-66
2023/01/23 08:53:41;;;;;;;12.18;5.25;;;;;;;;;;5094930;28;20054;-66
2023/01/23 08:56:16;;;;;;;12.77;6.43;;;;;;;;;;5094639;28;20044;-67
2023/01/23 08:58:43;;;;;;;14.75;7.35;;;;;;;;;;5094794;28;20494;-66
2023/01/23 09:01:15;;;;;;;15.75;6.60;;;;;;;;;;5094626;28;20044;-66
2023/01/23 09:03:43;;;;;;;14.02;6.60;;;;;;;;;;5094648;28;20036;-67
2023/01/23 09:06:11;;;;;;;14.80;6.75;;;;;;;;;;5094994;28;20051;-67
2023/01/23 09:08:39;;;;;;;17.92;6.57;;;;;;;;;;5094594;28;20051;-67
2023/01/23 09:11:08;;;;;;;10.23;5.45;;;;;;;;;;5094398;28;20040;-67
2023/01/23 09:13:36;;;;;;;16.02;7.45;;;;;;;;;;5094499;28;20051;-67
2023/01/23 09:16:04;;;;;;;13.63;7.53;;;;;;;;;;5094089;28;20036;-67
2023/01/23 09:18:31;;;;;;;15.27;7.40;;;;;;;;;;5094388;28;20400;-67
2023/01/23 09:20:59;;;;;;;13.45;6.78;;;;;;;;;;5094242;28;20048;-66
2023/01/23 09:23:27;;;;;;;14.27;7.22;;;;;;;;;;5094231;28;20059;-66
2023/01/23 09:25:54;;;;;;;14.93;6.68;;;;;;;;;;5094222;28;20040;-66
2023/01/23 09:28:22;;;;;;;13.70;5.80;;;;;;;;;;5094187;28;20040;-66
2023/01/23 09:30:49;;;;;;;13.50;6.55;;;;;;;;;;5094019;28;20410;-66
2023/01/23 09:33:17;;;;;;;11.45;5.85;;;;;;;;;;5092711;28;20044;-67
2023/01/23 09:35:45;;;;;;;13.65;5.72;;;;;;;;;;5093804;28;20500;-67
2023/01/23 09:38:12;;;;;;;13.85;7.25;;;;;;;;;;5093496;28;20101;-67
2023/01/23 09:40:50;;;;;;;10.18;5.63;;;;;;;;;;5093956;28;20119;-67
2023/01/23 09:43:36;;;;;;;9.85;5.05;;;;;;;;;;5093709;28;20063;-67
2023/01/23 09:46:09;;;;;;;10.43;5.88;;;;;;;;;;5094116;28;20063;-68
2023/01/23 09:48:43;;;;;;;13.55;6.80;;;;;;;;;;5092489;28;20142;-68
2023/01/23 09:51:21;;;;;;;15.10;7.00;;;;;;;;;;5093710;28;20036;-67
2023/01/23 09:53:49;;;;;;;19.35;7.65;;;;;;;;;;5093598;28;20393;-67
2023/01/23 09:56:19;;;;;;;16.67;6.45;;;;;;;;;;5094015;28;20048;-67
2023/01/23 09:58:58;;;;;;;14.20;6.90;;;;;;;;;;5094764;28;20064;-67
2023/01/23 10:01:28;;;;;;;13.95;6.80;;;;;;;;;;5092388;28;20119;-66
2023/01/23 10:03:57;;;;;;;14.32;7.57;;;;;;;;;;5093596;28;20180;-67
2023/01/23 10:06:27;;;;;;;15.55;8.10;;;;;;;;;;5093412;28;20055;-68
2023/01/23 10:09:04;;;;;;;18.67;8.65;;;;;;;;;;5093353;28;20093;-67
2023/01/23 10:11:37;;;;;;;16.13;6.82;;;;;;;;;;5093448;28;20044;-67
2023/01/23 10:14:11;;;;;;;17.38;8.27;;;;;;;;;;5093313;28;20036;-67
2023/01/23 10:16:44;;;;;;;16.83;7.80;;;;;;;;;;5093504;28;20039;-67
2023/01/23 10:19:20;;;;;;;11.32;6.10;;;;;;;;;;5093309;28;20036;-67
2023/01/23 10:21:47;;;;;;;18.45;8.60;;;;;;;;;;5093207;28;20124;-67
2023/01/23 10:24:27;;;;;;;15.80;6.88;;;;;;;;;;5093083;28;20085;-67
2023/01/23 10:26:55;;;;;;;14.77;7.72;;;;;;;;;;5093144;28;20040;-67
2023/01/23 10:29:36;;;;;;;15.23;7.00;;;;;;;;;;5093087;28;20551;-66
2023/01/23 10:32:05;;;;;;;16.33;7.15;;;;;;;;;;5093094;28;20044;-67
2023/01/23 10:34:49;;;;;;;12.93;6.57;;;;;;;;;;5093056;28;20036;-66
2023/01/23 10:37:20;;;;;;;14.88;6.35;;;;;;;;;;5092973;28;20492;-67
2023/01/23 10:39:59;;;;;;;18.27;9.07;;;;;;;;;;5092940;28;20086;-66
2023/01/23 10:42:27;;;;;;;12.73;7.20;;;;;;;;;;5092661;28;20126;-66
2023/01/23 10:44:54;;;;;;;14.90;7.80;;;;;;;;;;5092957;28;20036;-67
2023/01/23 10:47:34;;;;;;;14.75;7.57;;;;;;;;;;5092886;28;20051;-67
2023/01/23 10:50:03;;;;;;;17.10;8.32;;;;;;;;;;5091956;28;20122;-67
2023/01/23 10:52:34;;;;;;;22.60;9.50;;;;;;;;;;5092841;28;20486;-67
2023/01/23 10:55:02;;;;;;;20.90;8.15;;;;;;;;;;5092626;28;20040;-67
2023/01/23 10:57:35;;;;;;;20.02;8.90;;;;;;;;;;5092719;28;20040;-67
2023/01/23 11:00:16;;;;;;;17.77;8.07;;;;;;;;;;5092599;28;20068;-68
2023/01/23 11:02:43;;;;;;;17.85;8.30;;;;;;;;;;5092488;28;20039;-66
2023/01/23 11:05:29;;;;;;;20.13;8.02;;;;;;;;;;5092509;28;20466;-67
2023/01/23 11:07:59;;;;;;;22.83;8.70;;;;;;;;;;5092619;28;20094;-67
2023/01/23 11:10:27;;;;;;;24.15;10.10;;;;;;;;;;5091315;28;20442;-67
2023/01/23 11:12:55;;;;;;;18.38;8.32;;;;;;;;;;5092576;28;20036;-67
2023/01/23 11:15:31;;;;;;;22.58;9.52;;;;;;;;;;5092553;28;20043;-68
2023/01/23 11:17:59;;;;;;;22.17;9.98;;;;;;;;;;5092448;28;20043;-67
2023/01/23 11:20:27;;;;;;;20.98;10.32;;;;;;;;;;5092418;28;20066;-67
2023/01/23 11:23:04;;;;;;;16.65;7.25;;;;;;;;;;5092679;28;20135;-67
2023/01/23 11:25:38;;;;;;;23.88;10.13;;;;;;;;;;5092453;28;20451;-67
2023/01/23 11:28:32;;;;;;;19.65;8.18;;;;;;;;;;5092356;28;20046;-67
2023/01/23 11:31:05;;;;;;;21.95;9.63;;;;;;;;;;5091236;28;20111;-67
2023/01/23 11:34:00;;;;;;;20.25;9.20;;;;;;;;;;5092290;28;20118;-67
2023/01/23 11:36:47;;;;;;;20.50;9.43;;;;;;;;;;5092256;28;20047;-67
2023/01/23 11:39:15;;;;;;;21.30;10.30;;;;;;;;;;5092176;28;20050;-67
2023/01/23 11:41:44;;;;;;;22.25;9.57;;;;;;;;;;5092216;28;20047;-67
2023/01/23 11:44:19;;;;;;;20.67;9.05;;;;;;;;;;5092022;28;20124;-67
2023/01/23 11:46:52;;;;;;;20.77;9.73;;;;;;;;;;5090826;28;20110;-67
2023/01/23 11:49:38;;;;;;;15.85;8.18;;;;;;;;;;5092132;28;20490;-67
2023/01/23 11:52:06;;;;;;;16.42;8.15;;;;;;;;;;5092047;28;20068;-67
2023/01/23 11:54:39;;;;;;;20.42;8.93;;;;;;;;;;5091968;28;20103;-67
2023/01/23 11:57:25;;;;;;;19.70;8.88;;;;;;;;;;5091973;28;20097;-67
2023/01/23 11:59:53;;;;;;;16.83;7.57;;;;;;;;;;5092255;28;20135;-67
2023/01/23 12:02:23;;;;;;;17.00;7.90;;;;;;;;;;5095739;28;20090;-66
2023/01/23 12:04:59;;;;;;;20.70;9.18;;;;;;;;;;5095758;28;20059;-67
2023/01/23 12:07:27;;;;;;;23.20;9.73;;;;;;;;;;5095699;28;20040;-67
2023/01/23 12:10:13;;;;;;;16.60;7.75;;;;;;;;;;5095741;28;20124;-67
2023/01/23 12:12:49;;;;;;;22.95;9.65;;;;;;;;;;5095711;28;20039;-67
2023/01/23 12:15:28;;;;;;;19.02;9.10;;;;;;;;;;5094087;28;20087;-67
2023/01/23 12:18:16;;;;;;;21.05;9.75;;;;;;;;;;5095516;28;20044;-67
2023/01/23 12:20:48;;;;;;;17.95;7.65;;;;;;;;;;5094246;28;20047;-66
2023/01/23 12:23:34;;;;;;;19.35;8.85;;;;;;;;;;5095470;28;20044;-67
2023/01/23 12:26:11;;;;;;;20.95;8.95;;;;;;;;;;5095476;28;20040;-67
2023/01/23 12:28:38;;;;;;;24.75;10.55;;;;;;;;;;5095453;28;20443;-67
2023/01/23 12:31:15;;;;;;;17.38;7.88;;;;;;;;;;5095263;28;20415;-67
2023/01/23 12:34:09;;;;;;;20.92;8.98;;;;;;;;;;5095317;28;20115;-66
2023/01/23 12:36:37;;;;;;;24.00;10.82;;;;;;;;;;5092910;28;20272;-67
2023/01/23 12:39:43;;;;;;;22.50;11.85;;;;;;;;;;5095630;28;20042;-68
2023/01/23 12:42:29;;;;;;;19.45;8.73;;;;;;;;;;5095085;28;20055;-67
2023/01/23 12:44:59;;;;;;;24.52;10.60;;;;;;;;;;5095113;28;20375;-68
2023/01/23 12:47:31;;;;;;;17.20;8.98;;;;;;;;;;5095078;28;20044;-67
2023/01/23 12:50:02;;;;;;;23.27;9.18;;;;;;;;;;5093850;28;20036;-67
2023/01/23 12:52:42;;;;;;;23.40;10.82;;;;;;;;;;5095183;28;20061;-67
2023/01/23 12:55:18;;;;;;;15.30;7.43;;;;;;;;;;5094863;28;20508;-67
2023/01/23 12:57:50;;;;;;;19.88;10.40;;;;;;;;;;5094819;28;20433;-68
2023/01/23 13:00:32;;;;;;;24.67;10.98;;;;;;;;;;5094818;28;20113;-67
2023/01/23 13:03:09;;;;;;;26.20;10.63;;;;;;;;;;5094888;28;20092;-67
2023/01/23 13:05:42;;;;;;;23.80;10.82;;;;;;;;;;5095048;28;20370;-67
2023/01/23 13:08:14;;;;;;;20.55;9.05;;;;;;;;;;5094599;28;20441;-67
2023/01/23 13:13:47;;;;;;;28.60;13.77;;;;;;;;;;5091766;28;20099;-67
2023/01/23 13:16:16;;;;;;;24.70;11.30;;;;;;;;;;5094487;28;20036;-67
2023/01/23 13:22:12;;;;;;;19.60;9.63;;;;;;;;;;5094619;28;20047;-67
2023/01/23 13:25:13;;;;;;;22.13;10.52;;;;;;;;;;5094672;28;20047;-67
2023/01/23 13:27:44;;;;;;;17.60;8.00;;;;;;;;;;5094431;28;20036;-67
2023/01/23 13:30:34;;;;;;;21.70;8.88;;;;;;;;;;5094270;28;20048;-68
2023/01/23 13:33:05;;;;;;;14.52;7.22;;;;;;;;;;5094151;28;20044;-67
2023/01/23 13:35:39;;;;;;;18.10;8.68;;;;;;;;;;5093956;28;20058;-67
2023/01/23 13:38:31;;;;;;;19.83;7.63;;;;;;;;;;5093899;28;20036;-67
2023/01/23 13:41:13;;;;;;;21.80;11.02;;;;;;;;;;5094013;28;20040;-67
2023/01/23 13:43:49;;;;;;;19.77;8.88;;;;;;;;;;5093981;28;20056;-67
2023/01/23 13:46:32;;;;;;;14.65;8.15;;;;;;;;;;5093879;28;20120;-67
2023/01/23 13:58:33;;;;;;;24.65;11.63;;;;;;;;;;4877731;29;20481;-67
2023/01/23 14:07:43;;;;;;;47.15;19.88;;;;;;;;;;4785720;30;20063;-68
2023/01/23 14:10:34;;;;;;;29.20;11.40;;;;;;;;;;4785646;30;20069;-68
2023/01/23 14:13:18;;;;;;;30.80;12.93;;;;;;;;;;4785719;30;20067;-68
2023/01/23 14:16:09;;;;;;;22.90;10.07;;;;;;;;;;4792668;29;20413;-66
2023/01/23 14:18:54;;;;;;;30.33;14.52;;;;;;;;;;4798521;29;20061;-67
2023/01/23 14:21:41;;;;;;;27.23;12.77;;;;;;;;;;4858361;29;20058;-66
2023/01/23 14:24:22;;;;;;;21.50;10.25;;;;;;;;;;4895523;29;20581;-67
2023/01/23 14:26:50;;;;;;;27.58;12.55;;;;;;;;;;4895694;29;20459;-68
2023/01/23 14:29:22;;;;;;;21.35;9.82;;;;;;;;;;4924600;29;20052;-68
2023/01/23 14:31:50;;;;;;;26.20;10.77;;;;;;;;;;4948807;28;20106;-69
2023/01/23 14:34:18;;;;;;;20.98;10.85;;;;;;;;;;4971838;28;20524;-68
2023/01/23 14:37:02;;;;;;;18.73;8.82;;;;;;;;;;4971679;28;20061;-68
2023/01/23 14:39:31;;;;;;;20.83;10.23;;;;;;;;;;4971722;28;20055;-68
2023/01/23 14:42:00;;;;;;;24.73;10.50;;;;;;;;;;4971670;28;20109;-68
2023/01/23 14:44:39;;;;;;;21.73;9.10;;;;;;;;;;5050378;28;20075;-69
2023/01/23 14:47:09;;;;;;;22.33;11.15;;;;;;;;;;5091190;28;20127;-63
2023/01/23 14:49:37;;;;;;;18.35;9.52;;;;;;;;;;5092782;28;20050;-63
2023/01/23 14:52:06;;;;;;;23.67;12.27;;;;;;;;;;5087228;28;20032;-65
2023/01/23 14:54:34;;;;;;;23.83;11.32;;;;;;;;;;5082921;28;20110;-63
2023/01/23 14:57:05;;;;;;;41.97;21.27;;;;;;;;;;5077667;28;20044;-63
2023/01/23 14:59:37;;;;;;;23.20;10.38;;;;;;;;;;5072266;28;20086;-63
2023/01/23 15:02:23;;;;;;;45.20;17.85;;;;;;;;;;5072329;28;20043;-63
2023/01/23 15:05:26;;;;;;;24.38;10.52;;;;;;;;;;5072373;28;20045;-63
2023/01/23 15:07:56;;;;;;;23.25;9.95;;;;;;;;;;4990663;28;20066;-63
2023/01/23 15:10:28;;;;;;;24.42;11.45;;;;;;;;;;5058665;28;20045;-63
2023/01/23 15:12:55;;;;;;;17.40;8.88;;;;;;;;;;5070903;28;20044;-64
2023/01/23 15:15:24;;;;;;;31.90;12.80;;;;;;;;;;5072071;28;20417;-63
2023/01/23 15:17:53;;;;;;;24.58;11.73;;;;;;;;;;5072330;28;20036;-63
2023/01/23 15:20:31;;;;;;;20.38;10.32;;;;;;;;;;5071087;28;20094;-63